createdAt,value
2022-09-03T00:04:29.007Z,18.06
2022-09-03T00:26:41.877Z,17.94
2022-09-03T01:00:16.951Z,17.07
2022-09-03T02:22:32.816Z,17.58
2022-09-03T02:54:45.047Z,17.16
2022-09-03T03:29:05.130Z,16.79
2022-09-03T03:36:09.931Z,16.32
2022-09-03T03:46:43.042Z,16.80
2022-09-03T04:20:33.099Z,16.42
2022-09-03T04:25:09.904Z,16.91
2022-09-03T05:11:43.923Z,16.40
2022-09-03T06:08:39.042Z,16.23
2022-09-03T06:12:01.998Z,15.73
2022-09-03T06:21:50.516Z,16.58
2022-09-03T06:30:00.635Z,16.22
2022-09-03T06:48:18.731Z,17.57
2022-09-03T06:51:47.085Z,17.68
2022-09-03T06:54:18.196Z,17.05
2022-09-03T07:26:04.333Z,17.65
2022-09-03T08:06:07.992Z,20.03
2022-09-03T08:47:43.942Z,23.17
2022-09-03T08:53:55.261Z,23.22
2022-09-03T08:56:29.063Z,23.68
2022-09-03T08:58:57.077Z,23.76
2022-09-03T09:01:48.266Z,24.21
2022-09-03T09:04:35.010Z,24.20
2022-09-03T09:07:10.047Z,24.54
2022-09-03T09:09:49.734Z,24.67
2022-09-03T09:12:41.408Z,24.73
2022-09-03T09:15:18.648Z,25.07
2022-09-03T09:17:54.256Z,25.11
2022-09-03T09:20:57.141Z,25.05
2022-09-03T09:23:32.340Z,25.36
2022-09-03T09:26:01.477Z,25.53
2022-09-03T09:28:34.940Z,25.60
2022-09-03T09:31:04.570Z,25.62
2022-09-03T09:33:32.216Z,25.50
2022-09-03T09:36:03.741Z,25.80
2022-09-03T09:38:32.006Z,25.82
2022-09-03T09:41:09.788Z,25.82
2022-09-03T09:43:36.246Z,25.95
2022-09-03T09:46:23.612Z,26.09
2022-09-03T09:48:52.341Z,26.21
2022-09-03T09:51:25.804Z,26.24
2022-09-03T09:54:04.308Z,26.32
2022-09-03T09:56:30.848Z,26.41
2022-09-03T09:59:08.303Z,26.64
2022-09-03T10:01:38.293Z,26.71
2022-09-03T10:04:14.029Z,26.75
2022-09-03T10:06:56.936Z,26.78
2022-09-03T10:09:30.979Z,26.86
2022-09-03T10:12:14.721Z,26.90
2022-09-03T10:15:04.643Z,26.92
2022-09-03T10:17:46.149Z,26.99
2022-09-03T10:20:37.180Z,26.75
2022-09-03T10:23:28.060Z,27.04
2022-09-03T10:26:08.189Z,27.04
2022-09-03T10:28:41.359Z,26.97
2022-09-03T10:31:30.035Z,26.63
2022-09-03T10:34:01.825Z,26.76
2022-09-03T10:36:29.903Z,26.93
2022-09-03T10:39:13.589Z,26.81
2022-09-03T10:42:13.919Z,26.97
2022-09-03T10:44:46.350Z,26.99
2022-09-03T10:47:42.457Z,26.91
2022-09-03T10:50:18.140Z,27.00
2022-09-03T10:53:05.902Z,27.09
2022-09-03T10:55:56.672Z,27.01
2022-09-03T10:58:57.222Z,27.02
2022-09-03T11:01:53.403Z,26.85
2022-09-03T11:04:54.920Z,26.77
2022-09-03T11:07:23.366Z,26.90
2022-09-03T11:09:55.154Z,26.97
2022-09-03T11:12:32.336Z,26.87
2022-09-03T11:15:10.144Z,26.93
2022-09-03T11:17:56.869Z,26.91
2022-09-03T11:20:25.330Z,27.11
2022-09-03T11:22:57.433Z,27.15
2022-09-03T11:25:50.058Z,27.26
2022-09-03T11:28:26.996Z,26.55
2022-09-03T11:31:07.472Z,27.14
2022-09-03T11:33:53.149Z,26.83
2022-09-03T11:37:02.562Z,26.67
2022-09-03T11:39:51.072Z,26.41
2022-09-03T11:42:56.140Z,26.49
2022-09-03T11:49:28.078Z,26.34
2022-09-03T11:52:21.101Z,27.18
2022-09-03T11:55:07.675Z,26.84
2022-09-03T11:57:59.622Z,27.07
2022-09-03T12:00:46.787Z,26.77
2022-09-03T12:03:33.091Z,27.14
2022-09-03T12:06:46.131Z,26.72
2022-09-03T12:10:33.426Z,27.29
2022-09-03T12:13:52.105Z,27.10
2022-09-03T12:17:00.414Z,26.89
2022-09-03T12:20:30.810Z,27.44
2022-09-03T12:26:51.312Z,26.96
2022-09-03T12:29:48.676Z,27.29
2022-09-03T12:36:56.352Z,27.55
2022-09-03T12:43:38.993Z,27.30
2022-09-03T12:46:19.142Z,27.30
2022-09-03T12:52:56.597Z,27.57
2022-09-03T12:56:05.021Z,27.97
2022-09-03T12:59:20.583Z,27.32
2022-09-03T13:02:48.319Z,28.26
2022-09-03T13:06:04.238Z,28.14
2022-09-03T13:08:49.377Z,28.36
2022-09-03T14:19:58.661Z,35.65
2022-09-03T15:38:07.450Z,36.69
2022-09-03T15:40:46.197Z,38.10
2022-09-03T15:43:38.904Z,37.94
2022-09-03T15:46:13.552Z,37.27
2022-09-03T15:48:50.680Z,35.85
2022-09-03T15:51:27.222Z,35.78
2022-09-03T15:54:16.036Z,34.60
2022-09-03T15:57:06.000Z,33.63
2022-09-03T15:59:37.739Z,33.08
2022-09-03T16:02:10.925Z,33.24
2022-09-03T16:04:56.702Z,33.95
2022-09-03T16:07:48.861Z,34.45
2022-09-03T16:10:25.841Z,35.73
2022-09-03T16:13:25.309Z,35.14
2022-09-03T16:16:01.540Z,35.02
2022-09-03T16:18:40.827Z,35.55
2022-09-03T16:21:12.996Z,35.97
2022-09-03T16:23:47.325Z,35.91
2022-09-03T16:26:20.053Z,35.94
2022-09-03T16:28:53.555Z,36.26
2022-09-03T16:31:43.137Z,35.96
2022-09-03T16:35:08.736Z,35.94
2022-09-03T16:38:11.615Z,35.89
2022-09-03T16:40:51.000Z,35.27
2022-09-03T16:43:40.675Z,34.52
2022-09-03T16:46:23.227Z,33.90
2022-09-03T16:49:10.891Z,32.94
2022-09-03T16:52:11.646Z,31.94
2022-09-03T16:54:44.451Z,31.61
2022-09-03T16:57:40.334Z,31.19
2022-09-03T17:00:12.296Z,30.85
2022-09-03T17:03:25.073Z,30.55
2022-09-03T17:06:01.797Z,30.52
2022-09-03T17:08:43.939Z,30.06
2022-09-03T17:11:36.299Z,30.03
2022-09-03T17:14:16.552Z,29.73
2022-09-03T17:16:49.952Z,29.66
2022-09-03T17:19:37.744Z,29.23
2022-09-03T17:22:28.108Z,29.10
2022-09-03T17:25:03.802Z,28.73
2022-09-03T17:27:42.344Z,28.59
2022-09-03T17:30:23.913Z,28.61
2022-09-03T17:33:09.702Z,28.45
2022-09-03T17:36:01.199Z,28.26
2022-09-03T17:38:42.921Z,27.78
2022-09-03T17:41:20.462Z,27.75
2022-09-03T17:44:04.320Z,27.85
2022-09-03T17:46:42.799Z,27.73
2022-09-03T17:49:10.192Z,27.66
2022-09-03T17:51:45.989Z,27.26
2022-09-03T17:54:16.448Z,27.42
2022-09-03T17:56:48.204Z,27.46
2022-09-03T17:59:29.199Z,27.06
2022-09-03T18:02:15.518Z,26.92
2022-09-03T18:04:53.616Z,26.87
2022-09-03T18:07:41.909Z,26.77
2022-09-03T18:10:17.287Z,26.40
2022-09-03T18:13:03.014Z,26.39
2022-09-03T18:15:38.310Z,26.41
2022-09-03T18:18:08.684Z,26.03
2022-09-03T18:21:26.629Z,25.82
2022-09-03T18:24:43.762Z,25.72
2022-09-03T18:27:39.180Z,25.65
2022-09-03T18:30:27.085Z,25.46
2022-09-03T18:33:12.075Z,25.34
2022-09-03T18:35:57.100Z,25.04
2022-09-03T18:38:47.396Z,24.83
2022-09-03T18:41:57.652Z,24.96
2022-09-03T18:44:48.896Z,24.88
2022-09-03T18:48:04.629Z,24.79
2022-09-03T18:51:01.273Z,24.59
2022-09-03T18:54:14.127Z,24.30
2022-09-03T18:57:06.774Z,24.29
2022-09-03T19:00:19.815Z,23.57
2022-09-03T19:03:17.285Z,23.81
2022-09-03T19:06:21.969Z,23.84
2022-09-03T19:09:48.071Z,23.45
2022-09-03T19:13:01.787Z,23.52
2022-09-03T19:15:55.509Z,23.53
2022-09-03T19:19:10.771Z,23.30
2022-09-03T19:22:04.341Z,23.21
2022-09-03T19:24:50.031Z,23.16
2022-09-03T19:27:56.921Z,22.97
2022-09-03T19:31:09.691Z,23.02
2022-09-03T19:34:10.359Z,22.71
2022-09-03T19:37:03.216Z,22.77
2022-09-03T19:40:19.043Z,22.70
2022-09-03T19:43:15.984Z,22.60
2022-09-03T19:46:24.153Z,22.51
2022-09-03T19:49:12.348Z,22.59
2022-09-03T19:52:27.827Z,22.47
2022-09-03T19:55:14.301Z,22.22
2022-09-03T19:58:00.819Z,22.32
2022-09-03T20:00:47.024Z,22.27
2022-09-03T20:03:32.937Z,22.18
2022-09-03T20:06:19.980Z,21.94
2022-09-03T20:09:06.266Z,21.79
2022-09-03T20:11:32.694Z,21.92
2022-09-03T20:14:14.803Z,21.90
2022-09-03T20:16:59.461Z,21.71
2022-09-03T20:19:37.758Z,21.63
2022-09-03T20:22:15.633Z,21.32
2022-09-03T20:25:13.720Z,21.46
2022-09-03T20:28:18.746Z,21.43
2022-09-03T20:30:51.077Z,21.51
2022-09-03T20:33:37.862Z,21.06
2022-09-03T20:36:50.421Z,21.17
2022-09-03T20:39:31.845Z,21.18
2022-09-03T20:42:14.627Z,21.03
2022-09-03T20:44:48.019Z,21.21
2022-09-03T20:47:45.380Z,20.98
2022-09-03T20:50:44.133Z,21.08
2022-09-03T20:53:32.530Z,21.11
2022-09-03T20:56:04.032Z,21.01
2022-09-03T20:58:30.319Z,21.07
2022-09-03T21:01:08.778Z,20.78
2022-09-03T21:04:17.617Z,20.83
2022-09-03T21:06:48.505Z,21.11
2022-09-03T21:09:37.994Z,20.94
2022-09-03T21:12:15.009Z,20.77
2022-09-03T21:14:47.718Z,20.82
2022-09-03T21:17:47.160Z,20.80
2022-09-03T21:20:37.508Z,20.61
2022-09-03T21:23:15.235Z,20.64
2022-09-03T21:26:09.151Z,20.38
2022-09-03T21:28:40.279Z,20.43
2022-09-03T21:31:12.772Z,20.32
2022-09-03T21:33:39.524Z,20.42
2022-09-03T21:36:12.101Z,20.40
2022-09-03T21:38:45.939Z,20.35
2022-09-03T21:41:26.133Z,20.34
2022-09-03T21:44:01.800Z,20.19
2022-09-03T21:46:32.851Z,20.30
2022-09-03T21:49:10.901Z,19.89
2022-09-03T21:51:52.519Z,20.11
2022-09-03T21:54:30.678Z,20.20
2022-09-03T21:57:14.041Z,20.17
2022-09-03T21:59:46.369Z,20.06
2022-09-03T22:02:26.001Z,19.98
2022-09-03T22:04:53.661Z,20.00
2022-09-03T22:07:44.141Z,19.93
2022-09-03T22:10:13.657Z,20.05
2022-09-03T22:13:19.417Z,19.75
2022-09-03T22:15:50.081Z,19.75
2022-09-03T22:18:37.862Z,19.72
2022-09-03T22:21:17.039Z,19.66
2022-09-03T22:23:57.500Z,19.59
2022-09-03T22:26:32.237Z,19.49
2022-09-03T22:29:07.973Z,19.62
2022-09-03T22:31:52.988Z,19.77
2022-09-03T22:34:31.720Z,19.51
2022-09-03T22:37:03.496Z,19.63
2022-09-03T22:39:41.404Z,19.73
2022-09-03T22:42:26.625Z,19.68
2022-09-03T22:45:05.165Z,19.55
2022-09-03T22:47:37.324Z,19.64
2022-09-03T22:50:42.718Z,19.74
2022-09-03T22:53:34.379Z,19.73
2022-09-03T22:56:12.530Z,19.46
2022-09-03T22:59:00.732Z,19.30
2022-09-03T23:01:31.331Z,19.45
2022-09-03T23:04:27.082Z,19.35
2022-09-03T23:07:22.340Z,19.18
2022-09-03T23:09:58.317Z,19.30
2022-09-03T23:12:35.390Z,19.37
2022-09-03T23:15:06.645Z,19.33
2022-09-03T23:17:38.891Z,19.24
2022-09-03T23:22:40.452Z,19.31
2022-09-03T23:25:12.935Z,19.20
2022-09-03T23:27:49.392Z,19.13
2022-09-03T23:30:16.651Z,19.02
2022-09-03T23:32:43.847Z,19.12
2022-09-03T23:35:17.705Z,18.95
2022-09-03T23:38:05.280Z,19.31
2022-09-03T23:40:45.981Z,19.28
2022-09-03T23:43:38.378Z,19.29
2022-09-03T23:46:16.940Z,19.28
2022-09-03T23:48:55.373Z,19.35
2022-09-03T23:51:32.798Z,19.54
2022-09-03T23:54:27.537Z,19.42
2022-09-03T23:57:12.408Z,19.29
